LIRI

Details ICAO LIRI (QSR)
Name Pontecagnano
Region Italy
Timezone Europe/Rome (UTC+2.0)
Plans Departing 58
Arriving 51
Stats Elevation 131 ft / 40 m (AMSL)
Location 40.618691° 14.910538°
Runways 1
Magnetic Variation 3.441° E
Sunrise 2018-05-24 03:37:49 UTC / 2018-05-24 05:37:49 Local
Sunset 2018-05-24 18:19:26 UTC / 2018-05-24 20:19:26 Local
Advertisement - Login to hide

Runways

ID Width Length Bearing (true) Bearing (mag) Surface Threshold Offset Overrun Length
05 148 ft / 45 m 5,259 ft / 1,603 m 52.06° 48.62° Asphalt 0 ft / 0 m 0 ft / 0 m
23 148 ft / 45 m 5,259 ft / 1,603 m 232.07° 228.63° Asphalt 512 ft / 156 m 0 ft / 0 m

Map

Weather


0- 5 10 15 20 25 30 35+ Temperature / ° C

Clouds and Precipitation
Forecast for 2018-05-24 12:00 UTC. Updated 2 hours ago

Ground ~20,000 ft ~40,000 ft Winds

METAR

LIRI 241150Z 22007KT 9999 FEW020 23/19 Q1016

TAF

Not found

Frequencies

Recorded 119.17 MHz SALERNO FSS
Warning: Do not use this data for real-world aviation or navigation. No guarantee of current accuracy is given.